sensor_id;sensor_type;location;lat;lon;timestamp;P1;durP1;ratioP1;P2;durP2;ratioP2
67378;SDS011;54262;44.642;-0.974;2023-02-23T00:00:23;6.78;;;2.72;;
67378;SDS011;54262;44.642;-0.974;2023-02-23T00:02:54;7.32;;;3.20;;
67378;SDS011;54262;44.642;-0.974;2023-02-23T00:05:23;8.90;;;2.50;;
67378;SDS011;54262;44.642;-0.974;2023-02-23T00:07:50;11.18;;;2.72;;
67378;SDS011;54262;44.642;-0.974;2023-02-23T00:10:16;8.00;;;2.13;;
67378;SDS011;54262;44.642;-0.974;2023-02-23T00:12:44;6.28;;;3.10;;
67378;SDS011;54262;44.642;-0.974;2023-02-23T00:15:10;6.75;;;3.20;;
67378;SDS011;54262;44.642;-0.974;2023-02-23T00:17:36;12.55;;;3.95;;
67378;SDS011;54262;44.642;-0.974;2023-02-23T00:20:05;8.77;;;4.00;;
67378;SDS011;54262;44.642;-0.974;2023-02-23T00:22:40;6.07;;;3.20;;
67378;SDS011;54262;44.642;-0.974;2023-02-23T00:25:06;9.85;;;4.55;;
67378;SDS011;54262;44.642;-0.974;2023-02-23T00:27:35;9.30;;;2.85;;
67378;SDS011;54262;44.642;-0.974;2023-02-23T00:30:02;7.75;;;2.30;;
67378;SDS011;54262;44.642;-0.974;2023-02-23T00:32:29;8.48;;;1.95;;
67378;SDS011;54262;44.642;-0.974;2023-02-23T00:34:54;6.57;;;2.28;;
67378;SDS011;54262;44.642;-0.974;2023-02-23T00:37:22;10.02;;;2.05;;
67378;SDS011;54262;44.642;-0.974;2023-02-23T00:39:48;6.10;;;2.03;;
67378;SDS011;54262;44.642;-0.974;2023-02-23T00:42:14;11.93;;;1.80;;
67378;SDS011;54262;44.642;-0.974;2023-02-23T00:44:40;7.78;;;1.70;;
67378;SDS011;54262;44.642;-0.974;2023-02-23T00:47:06;14.50;;;1.80;;
67378;SDS011;54262;44.642;-0.974;2023-02-23T00:49:32;5.70;;;1.38;;
67378;SDS011;54262;44.642;-0.974;2023-02-23T00:51:58;9.55;;;1.77;;
67378;SDS011;54262;44.642;-0.974;2023-02-23T00:54:24;17.88;;;1.83;;
67378;SDS011;54262;44.642;-0.974;2023-02-23T00:56:50;11.80;;;2.42;;
67378;SDS011;54262;44.642;-0.974;2023-02-23T00:59:16;12.55;;;2.72;;
67378;SDS011;54262;44.642;-0.974;2023-02-23T01:01:43;10.80;;;3.28;;
67378;SDS011;54262;44.642;-0.974;2023-02-23T01:04:09;8.93;;;3.47;;
67378;SDS011;54262;44.642;-0.974;2023-02-23T01:06:36;10.02;;;3.95;;
67378;SDS011;54262;44.642;-0.974;2023-02-23T01:09:07;10.15;;;3.38;;
67378;SDS011;54262;44.642;-0.974;2023-02-23T01:11:34;10.25;;;2.83;;
67378;SDS011;54262;44.642;-0.974;2023-02-23T01:14:00;8.70;;;2.08;;
67378;SDS011;54262;44.642;-0.974;2023-02-23T01:16:28;10.77;;;2.25;;
67378;SDS011;54262;44.642;-0.974;2023-02-23T01:18:57;14.10;;;2.83;;
67378;SDS011;54262;44.642;-0.974;2023-02-23T01:21:27;5.15;;;2.00;;
67378;SDS011;54262;44.642;-0.974;2023-02-23T01:23:54;9.82;;;2.30;;
67378;SDS011;54262;44.642;-0.974;2023-02-23T01:26:26;11.90;;;2.33;;
67378;SDS011;54262;44.642;-0.974;2023-02-23T01:28:55;7.55;;;1.80;;
67378;SDS011;54262;44.642;-0.974;2023-02-23T01:31:23;8.23;;;2.22;;
67378;SDS011;54262;44.642;-0.974;2023-02-23T01:33:53;7.43;;;1.95;;
67378;SDS011;54262;44.642;-0.974;2023-02-23T01:36:23;8.65;;;2.05;;
67378;SDS011;54262;44.642;-0.974;2023-02-23T01:38:50;6.72;;;1.65;;
67378;SDS011;54262;44.642;-0.974;2023-02-23T01:41:19;12.20;;;2.00;;
67378;SDS011;54262;44.642;-0.974;2023-02-23T01:43:55;19.52;;;3.03;;
67378;SDS011;54262;44.642;-0.974;2023-02-23T01:46:42;8.65;;;3.17;;
67378;SDS011;54262;44.642;-0.974;2023-02-23T01:49:12;9.68;;;2.50;;
67378;SDS011;54262;44.642;-0.974;2023-02-23T01:51:41;9.65;;;3.33;;
67378;SDS011;54262;44.642;-0.974;2023-02-23T01:54:13;19.27;;;2.83;;
67378;SDS011;54262;44.642;-0.974;2023-02-23T01:56:43;9.25;;;2.78;;
67378;SDS011;54262;44.642;-0.974;2023-02-23T01:59:13;15.43;;;3.40;;
67378;SDS011;54262;44.642;-0.974;2023-02-23T02:01:39;14.45;;;2.92;;
67378;SDS011;54262;44.642;-0.974;2023-02-23T02:04:07;21.77;;;3.65;;
67378;SDS011;54262;44.642;-0.974;2023-02-23T02:06:35;34.08;;;4.13;;
67378;SDS011;54262;44.642;-0.974;2023-02-23T02:09:04;28.35;;;3.70;;
67378;SDS011;54262;44.642;-0.974;2023-02-23T02:11:34;15.63;;;3.00;;
67378;SDS011;54262;44.642;-0.974;2023-02-23T02:14:03;18.38;;;3.88;;
67378;SDS011;54262;44.642;-0.974;2023-02-23T02:16:40;12.65;;;4.10;;
67378;SDS011;54262;44.642;-0.974;2023-02-23T02:19:27;23.27;;;4.40;;
67378;SDS011;54262;44.642;-0.974;2023-02-23T02:36:14;13.32;;;4.82;;
67378;SDS011;54262;44.642;-0.974;2023-02-23T02:38:54;10.95;;;4.95;;
67378;SDS011;54262;44.642;-0.974;2023-02-23T02:47:16;12.18;;;5.78;;
67378;SDS011;54262;44.642;-0.974;2023-02-23T02:50:01;3.55;;;2.13;;
67378;SDS011;54262;44.642;-0.974;2023-02-23T02:55:26;5.20;;;3.00;;
67378;SDS011;54262;44.642;-0.974;2023-02-23T02:57:58;19.80;;;3.33;;
67378;SDS011;54262;44.642;-0.974;2023-02-23T03:00:30;3.90;;;2.63;;
67378;SDS011;54262;44.642;-0.974;2023-02-23T03:03:33;1.75;;;1.10;;
67378;SDS011;54262;44.642;-0.974;2023-02-23T03:06:24;4.30;;;1.77;;
67378;SDS011;54262;44.642;-0.974;2023-02-23T03:09:21;8.27;;;1.98;;
67378;SDS011;54262;44.642;-0.974;2023-02-23T03:15:19;16.80;;;3.13;;
67378;SDS011;54262;44.642;-0.974;2023-02-23T03:18:44;0.10;;;0.10;;
67378;SDS011;54262;44.642;-0.974;2023-02-23T03:21:45;1.67;;;1.58;;
67378;SDS011;54262;44.642;-0.974;2023-02-23T03:25:08;0.10;;;0.10;;
67378;SDS011;54262;44.642;-0.974;2023-02-23T03:28:14;0.55;;;0.55;;
67378;SDS011;54262;44.642;-0.974;2023-02-23T03:31:16;0.32;;;0.32;;
67378;SDS011;54262;44.642;-0.974;2023-02-23T03:34:16;0.10;;;0.10;;
67378;SDS011;54262;44.642;-0.974;2023-02-23T03:37:44;0.10;;;0.10;;
67378;SDS011;54262;44.642;-0.974;2023-02-23T03:40:36;0.10;;;0.10;;
67378;SDS011;54262;44.642;-0.974;2023-02-23T03:43:25;0.30;;;0.30;;
67378;SDS011;54262;44.642;-0.974;2023-02-23T03:46:15;0.00;;;0.00;;
67378;SDS011;54262;44.642;-0.974;2023-02-23T03:49:01;0.10;;;0.10;;
67378;SDS011;54262;44.642;-0.974;2023-02-23T03:51:50;0.10;;;0.10;;
67378;SDS011;54262;44.642;-0.974;2023-02-23T03:54:48;0.17;;;0.17;;
67378;SDS011;54262;44.642;-0.974;2023-02-23T03:57:39;0.13;;;0.13;;
67378;SDS011;54262;44.642;-0.974;2023-02-23T04:00:36;0.13;;;0.13;;
67378;SDS011;54262;44.642;-0.974;2023-02-23T04:03:24;0.00;;;0.00;;
67378;SDS011;54262;44.642;-0.974;2023-02-23T04:06:11;0.00;;;0.00;;
67378;SDS011;54262;44.642;-0.974;2023-02-23T04:08:58;0.10;;;0.10;;
67378;SDS011;54262;44.642;-0.974;2023-02-23T04:11:52;0.90;;;0.90;;
67378;SDS011;54262;44.642;-0.974;2023-02-23T04:15:26;0.10;;;0.10;;
67378;SDS011;54262;44.642;-0.974;2023-02-23T04:17:36;0.10;;;0.10;;
67378;SDS011;54262;44.642;-0.974;2023-02-23T04:20:03;0.10;;;0.10;;
67378;SDS011;54262;44.642;-0.974;2023-02-23T04:22:31;0.00;;;0.00;;
67378;SDS011;54262;44.642;-0.974;2023-02-23T04:24:57;0.10;;;0.10;;
67378;SDS011;54262;44.642;-0.974;2023-02-23T04:27:28;0.25;;;0.25;;
67378;SDS011;54262;44.642;-0.974;2023-02-23T04:29:54;0.50;;;0.47;;
67378;SDS011;54262;44.642;-0.974;2023-02-23T04:32:19;4.00;;;0.40;;
67378;SDS011;54262;44.642;-0.974;2023-02-23T04:34:45;0.77;;;0.47;;
67378;SDS011;54262;44.642;-0.974;2023-02-23T04:37:11;0.35;;;0.30;;
67378;SDS011;54262;44.642;-0.974;2023-02-23T04:39:37;3.97;;;0.52;;
67378;SDS011;54262;44.642;-0.974;2023-02-23T04:42:03;1.88;;;0.40;;
67378;SDS011;54262;44.642;-0.974;2023-02-23T04:44:29;1.65;;;0.47;;
67378;SDS011;54262;44.642;-0.974;2023-02-23T04:46:56;2.60;;;0.40;;
67378;SDS011;54262;44.642;-0.974;2023-02-23T04:49:22;1.27;;;1.17;;
67378;SDS011;54262;44.642;-0.974;2023-02-23T04:51:48;1.48;;;0.47;;
67378;SDS011;54262;44.642;-0.974;2023-02-23T04:54:14;1.67;;;0.30;;
67378;SDS011;54262;44.642;-0.974;2023-02-23T04:56:39;0.28;;;0.20;;
67378;SDS011;54262;44.642;-0.974;2023-02-23T04:59:05;2.55;;;0.30;;
67378;SDS011;54262;44.642;-0.974;2023-02-23T05:01:31;0.00;;;0.00;;
67378;SDS011;54262;44.642;-0.974;2023-02-23T05:03:57;0.10;;;0.10;;
67378;SDS011;54262;44.642;-0.974;2023-02-23T05:06:24;0.00;;;0.00;;
67378;SDS011;54262;44.642;-0.974;2023-02-23T05:08:50;0.10;;;0.10;;
67378;SDS011;54262;44.642;-0.974;2023-02-23T05:11:15;0.10;;;0.10;;
67378;SDS011;54262;44.642;-0.974;2023-02-23T05:13:41;0.00;;;0.00;;
67378;SDS011;54262;44.642;-0.974;2023-02-23T05:16:07;0.00;;;0.00;;
67378;SDS011;54262;44.642;-0.974;2023-02-23T05:18:32;0.15;;;0.15;;
67378;SDS011;54262;44.642;-0.974;2023-02-23T05:21:05;0.10;;;0.10;;
67378;SDS011;54262;44.642;-0.974;2023-02-23T05:23:33;0.10;;;0.10;;
67378;SDS011;54262;44.642;-0.974;2023-02-23T05:26:03;0.85;;;0.85;;
67378;SDS011;54262;44.642;-0.974;2023-02-23T05:28:34;0.17;;;0.17;;
67378;SDS011;54262;44.642;-0.974;2023-02-23T05:31:02;0.10;;;0.10;;
67378;SDS011;54262;44.642;-0.974;2023-02-23T05:33:29;0.10;;;0.10;;
67378;SDS011;54262;44.642;-0.974;2023-02-23T05:35:55;0.00;;;0.00;;
67378;SDS011;54262;44.642;-0.974;2023-02-23T05:38:22;0.10;;;0.10;;
67378;SDS011;54262;44.642;-0.974;2023-02-23T05:40:47;0.10;;;0.10;;
67378;SDS011;54262;44.642;-0.974;2023-02-23T05:43:13;0.10;;;0.10;;
67378;SDS011;54262;44.642;-0.974;2023-02-23T05:45:39;0.20;;;0.20;;
67378;SDS011;54262;44.642;-0.974;2023-02-23T05:48:05;0.10;;;0.10;;
67378;SDS011;54262;44.642;-0.974;2023-02-23T05:50:32;0.10;;;0.10;;
67378;SDS011;54262;44.642;-0.974;2023-02-23T05:52:58;0.03;;;0.03;;
67378;SDS011;54262;44.642;-0.974;2023-02-23T05:55:24;0.13;;;0.13;;
67378;SDS011;54262;44.642;-0.974;2023-02-23T05:57:49;0.00;;;0.00;;
67378;SDS011;54262;44.642;-0.974;2023-02-23T06:00:15;0.05;;;0.05;;
67378;SDS011;54262;44.642;-0.974;2023-02-23T06:02:45;0.00;;;0.00;;
67378;SDS011;54262;44.642;-0.974;2023-02-23T06:05:10;0.30;;;0.30;;
67378;SDS011;54262;44.642;-0.974;2023-02-23T06:07:37;0.10;;;0.10;;
67378;SDS011;54262;44.642;-0.974;2023-02-23T06:10:03;0.00;;;0.00;;
67378;SDS011;54262;44.642;-0.974;2023-02-23T06:12:30;0.00;;;0.00;;
67378;SDS011;54262;44.642;-0.974;2023-02-23T06:14:56;0.10;;;0.10;;
67378;SDS011;54262;44.642;-0.974;2023-02-23T06:17:21;0.10;;;0.10;;
67378;SDS011;54262;44.642;-0.974;2023-02-23T06:19:48;0.10;;;0.10;;
67378;SDS011;54262;44.642;-0.974;2023-02-23T06:22:13;0.10;;;0.10;;
67378;SDS011;54262;44.642;-0.974;2023-02-23T06:24:41;0.10;;;0.10;;
67378;SDS011;54262;44.642;-0.974;2023-02-23T06:27:08;0.00;;;0.00;;
67378;SDS011;54262;44.642;-0.974;2023-02-23T06:29:33;0.10;;;0.10;;
67378;SDS011;54262;44.642;-0.974;2023-02-23T06:32:01;0.10;;;0.10;;
67378;SDS011;54262;44.642;-0.974;2023-02-23T06:34:27;0.10;;;0.10;;
67378;SDS011;54262;44.642;-0.974;2023-02-23T06:36:53;0.10;;;0.10;;
67378;SDS011;54262;44.642;-0.974;2023-02-23T06:39:19;1.15;;;1.05;;
67378;SDS011;54262;44.642;-0.974;2023-02-23T06:41:45;0.10;;;0.10;;
67378;SDS011;54262;44.642;-0.974;2023-02-23T06:44:10;0.00;;;0.00;;
67378;SDS011;54262;44.642;-0.974;2023-02-23T06:46:36;0.10;;;0.10;;
67378;SDS011;54262;44.642;-0.974;2023-02-23T06:49:02;0.40;;;0.40;;
67378;SDS011;54262;44.642;-0.974;2023-02-23T06:51:28;0.10;;;0.10;;
67378;SDS011;54262;44.642;-0.974;2023-02-23T06:53:54;0.10;;;0.10;;
67378;SDS011;54262;44.642;-0.974;2023-02-23T06:56:20;0.43;;;0.43;;
67378;SDS011;54262;44.642;-0.974;2023-02-23T06:58:46;0.00;;;0.00;;
67378;SDS011;54262;44.642;-0.974;2023-02-23T07:01:13;0.00;;;0.00;;
67378;SDS011;54262;44.642;-0.974;2023-02-23T07:03:39;0.00;;;0.00;;
67378;SDS011;54262;44.642;-0.974;2023-02-23T07:06:05;0.10;;;0.10;;
67378;SDS011;54262;44.642;-0.974;2023-02-23T07:08:32;0.10;;;0.10;;
67378;SDS011;54262;44.642;-0.974;2023-02-23T07:11:05;0.10;;;0.10;;
67378;SDS011;54262;44.642;-0.974;2023-02-23T07:13:32;0.30;;;0.30;;
67378;SDS011;54262;44.642;-0.974;2023-02-23T07:15:58;0.20;;;0.20;;
67378;SDS011;54262;44.642;-0.974;2023-02-23T07:18:23;0.10;;;0.10;;
67378;SDS011;54262;44.642;-0.974;2023-02-23T07:20:49;0.10;;;0.10;;
67378;SDS011;54262;44.642;-0.974;2023-02-23T07:23:17;0.10;;;0.10;;
67378;SDS011;54262;44.642;-0.974;2023-02-23T07:25:43;0.10;;;0.10;;
67378;SDS011;54262;44.642;-0.974;2023-02-23T07:28:09;0.10;;;0.10;;
67378;SDS011;54262;44.642;-0.974;2023-02-23T07:30:38;1.10;;;1.10;;
67378;SDS011;54262;44.642;-0.974;2023-02-23T07:33:04;0.10;;;0.10;;
67378;SDS011;54262;44.642;-0.974;2023-02-23T07:35:29;0.20;;;0.20;;
67378;SDS011;54262;44.642;-0.974;2023-02-23T07:37:55;0.10;;;0.10;;
67378;SDS011;54262;44.642;-0.974;2023-02-23T07:40:21;0.10;;;0.10;;
67378;SDS011;54262;44.642;-0.974;2023-02-23T07:42:47;0.10;;;0.10;;
67378;SDS011;54262;44.642;-0.974;2023-02-23T07:45:12;0.28;;;0.28;;
67378;SDS011;54262;44.642;-0.974;2023-02-23T07:47:41;0.10;;;0.10;;
67378;SDS011;54262;44.642;-0.974;2023-02-23T07:50:07;0.10;;;0.10;;
67378;SDS011;54262;44.642;-0.974;2023-02-23T07:52:37;0.00;;;0.00;;
67378;SDS011;54262;44.642;-0.974;2023-02-23T07:55:05;0.10;;;0.10;;
67378;SDS011;54262;44.642;-0.974;2023-02-23T07:57:31;0.20;;;0.20;;
67378;SDS011;54262;44.642;-0.974;2023-02-23T07:59:57;0.00;;;0.00;;
67378;SDS011;54262;44.642;-0.974;2023-02-23T08:02:23;0.20;;;0.20;;
67378;SDS011;54262;44.642;-0.974;2023-02-23T08:04:49;0.00;;;0.00;;
67378;SDS011;54262;44.642;-0.974;2023-02-23T08:07:21;0.10;;;0.10;;
67378;SDS011;54262;44.642;-0.974;2023-02-23T08:09:47;0.10;;;0.10;;
67378;SDS011;54262;44.642;-0.974;2023-02-23T08:12:13;0.10;;;0.10;;
67378;SDS011;54262;44.642;-0.974;2023-02-23T08:14:39;0.25;;;0.25;;
67378;SDS011;54262;44.642;-0.974;2023-02-23T08:17:06;0.10;;;0.10;;
67378;SDS011;54262;44.642;-0.974;2023-02-23T08:19:32;0.00;;;0.00;;
67378;SDS011;54262;44.642;-0.974;2023-02-23T08:21:58;0.15;;;0.15;;
67378;SDS011;54262;44.642;-0.974;2023-02-23T08:24:24;0.00;;;0.00;;
67378;SDS011;54262;44.642;-0.974;2023-02-23T08:26:50;0.10;;;0.10;;
67378;SDS011;54262;44.642;-0.974;2023-02-23T08:29:16;0.10;;;0.10;;
67378;SDS011;54262;44.642;-0.974;2023-02-23T08:31:43;0.10;;;0.10;;
67378;SDS011;54262;44.642;-0.974;2023-02-23T08:34:09;0.10;;;0.10;;
67378;SDS011;54262;44.642;-0.974;2023-02-23T08:36:35;0.00;;;0.00;;
67378;SDS011;54262;44.642;-0.974;2023-02-23T08:39:00;0.65;;;0.65;;
67378;SDS011;54262;44.642;-0.974;2023-02-23T08:41:26;0.10;;;0.10;;
67378;SDS011;54262;44.642;-0.974;2023-02-23T08:43:52;0.10;;;0.10;;
67378;SDS011;54262;44.642;-0.974;2023-02-23T08:46:18;0.10;;;0.10;;
67378;SDS011;54262;44.642;-0.974;2023-02-23T08:48:44;0.10;;;0.10;;
67378;SDS011;54262;44.642;-0.974;2023-02-23T08:51:11;0.10;;;0.10;;
67378;SDS011;54262;44.642;-0.974;2023-02-23T08:53:37;0.10;;;0.10;;
67378;SDS011;54262;44.642;-0.974;2023-02-23T08:56:04;0.10;;;0.10;;
67378;SDS011;54262;44.642;-0.974;2023-02-23T08:58:31;0.00;;;0.00;;
67378;SDS011;54262;44.642;-0.974;2023-02-23T09:00:57;0.10;;;0.10;;
67378;SDS011;54262;44.642;-0.974;2023-02-23T09:03:24;0.10;;;0.10;;
67378;SDS011;54262;44.642;-0.974;2023-02-23T09:05:52;0.10;;;0.10;;
67378;SDS011;54262;44.642;-0.974;2023-02-23T09:08:19;0.00;;;0.00;;
67378;SDS011;54262;44.642;-0.974;2023-02-23T09:10:45;0.10;;;0.10;;
67378;SDS011;54262;44.642;-0.974;2023-02-23T09:13:11;0.10;;;0.10;;
67378;SDS011;54262;44.642;-0.974;2023-02-23T09:15:40;0.13;;;0.13;;
67378;SDS011;54262;44.642;-0.974;2023-02-23T09:18:07;0.45;;;0.45;;
67378;SDS011;54262;44.642;-0.974;2023-02-23T09:20:35;0.10;;;0.10;;
67378;SDS011;54262;44.642;-0.974;2023-02-23T09:23:01;0.20;;;0.20;;
67378;SDS011;54262;44.642;-0.974;2023-02-23T09:25:26;0.10;;;0.10;;
67378;SDS011;54262;44.642;-0.974;2023-02-23T09:27:53;0.10;;;0.10;;
67378;SDS011;54262;44.642;-0.974;2023-02-23T09:30:24;0.32;;;0.32;;
67378;SDS011;54262;44.642;-0.974;2023-02-23T09:32:50;0.63;;;0.63;;
67378;SDS011;54262;44.642;-0.974;2023-02-23T09:35:22;0.10;;;0.10;;
67378;SDS011;54262;44.642;-0.974;2023-02-23T09:37:50;0.10;;;0.10;;
67378;SDS011;54262;44.642;-0.974;2023-02-23T09:40:27;0.10;;;0.10;;
67378;SDS011;54262;44.642;-0.974;2023-02-23T09:42:59;0.10;;;0.10;;
67378;SDS011;54262;44.642;-0.974;2023-02-23T09:45:52;0.10;;;0.10;;
67378;SDS011;54262;44.642;-0.974;2023-02-23T09:48:26;1.20;;;1.20;;
67378;SDS011;54262;44.642;-0.974;2023-02-23T09:50:54;0.52;;;0.52;;
67378;SDS011;54262;44.642;-0.974;2023-02-23T09:53:26;0.00;;;0.00;;
67378;SDS011;54262;44.642;-0.974;2023-02-23T09:56:16;0.10;;;0.10;;
67378;SDS011;54262;44.642;-0.974;2023-02-23T09:58:43;0.10;;;0.10;;
67378;SDS011;54262;44.642;-0.974;2023-02-23T10:07:11;0.10;;;0.10;;
67378;SDS011;54262;44.642;-0.974;2023-02-23T10:23:03;0.30;;;0.30;;
67378;SDS011;54262;44.642;-0.974;2023-02-23T10:25:33;0.10;;;0.10;;
67378;SDS011;54262;44.642;-0.974;2023-02-23T10:28:02;0.05;;;0.05;;
67378;SDS011;54262;44.642;-0.974;2023-02-23T10:30:32;0.10;;;0.10;;
67378;SDS011;54262;44.642;-0.974;2023-02-23T10:35:57;0.10;;;0.10;;
67378;SDS011;54262;44.642;-0.974;2023-02-23T10:38:35;0.08;;;0.08;;
67378;SDS011;54262;44.642;-0.974;2023-02-23T10:41:02;0.60;;;0.60;;
67378;SDS011;54262;44.642;-0.974;2023-02-23T10:43:29;0.20;;;0.20;;
67378;SDS011;54262;44.642;-0.974;2023-02-23T10:45:55;0.10;;;0.10;;
67378;SDS011;54262;44.642;-0.974;2023-02-23T10:48:23;0.10;;;0.10;;
67378;SDS011;54262;44.642;-0.974;2023-02-23T10:51:21;0.10;;;0.10;;
67378;SDS011;54262;44.642;-0.974;2023-02-23T10:53:57;0.30;;;0.30;;
67378;SDS011;54262;44.642;-0.974;2023-02-23T10:56:22;0.57;;;0.57;;
67378;SDS011;54262;44.642;-0.974;2023-02-23T10:58:56;0.10;;;0.10;;
67378;SDS011;54262;44.642;-0.974;2023-02-23T11:04:26;0.10;;;0.10;;
67378;SDS011;54262;44.642;-0.974;2023-02-23T11:07:12;0.10;;;0.10;;
67378;SDS011;54262;44.642;-0.974;2023-02-23T11:09:41;0.10;;;0.10;;
67378;SDS011;54262;44.642;-0.974;2023-02-23T11:15:24;0.20;;;0.20;;
67378;SDS011;54262;44.642;-0.974;2023-02-23T11:17:59;0.20;;;0.20;;
67378;SDS011;54262;44.642;-0.974;2023-02-23T11:20:34;0.10;;;0.10;;
67378;SDS011;54262;44.642;-0.974;2023-02-23T11:25:53;0.10;;;0.10;;
67378;SDS011;54262;44.642;-0.974;2023-02-23T11:28:40;0.10;;;0.10;;
67378;SDS011;54262;44.642;-0.974;2023-02-23T11:33:46;0.00;;;0.00;;
67378;SDS011;54262;44.642;-0.974;2023-02-23T11:38:41;0.20;;;0.20;;
67378;SDS011;54262;44.642;-0.974;2023-02-23T11:41:18;0.08;;;0.08;;
67378;SDS011;54262;44.642;-0.974;2023-02-23T11:43:48;0.30;;;0.30;;
67378;SDS011;54262;44.642;-0.974;2023-02-23T11:46:15;0.10;;;0.10;;
67378;SDS011;54262;44.642;-0.974;2023-02-23T11:48:52;0.10;;;0.10;;
67378;SDS011;54262;44.642;-0.974;2023-02-23T11:51:27;0.10;;;0.10;;
67378;SDS011;54262;44.642;-0.974;2023-02-23T11:53:58;0.03;;;0.03;;
67378;SDS011;54262;44.642;-0.974;2023-02-23T11:56:24;0.03;;;0.03;;
67378;SDS011;54262;44.642;-0.974;2023-02-23T11:58:57;1.35;;;0.50;;
67378;SDS011;54262;44.642;-0.974;2023-02-23T12:04:31;0.87;;;0.60;;
67378;SDS011;54262;44.642;-0.974;2023-02-23T12:07:17;0.40;;;0.30;;
67378;SDS011;54262;44.642;-0.974;2023-02-23T12:20:59;1.15;;;1.10;;
67378;SDS011;54262;44.642;-0.974;2023-02-23T12:23:38;1.38;;;0.70;;
67378;SDS011;54262;44.642;-0.974;2023-02-23T12:26:16;4.28;;;0.75;;
67378;SDS011;54262;44.642;-0.974;2023-02-23T12:28:50;1.65;;;0.98;;
67378;SDS011;54262;44.642;-0.974;2023-02-23T12:34:34;1.08;;;0.70;;
67378;SDS011;54262;44.642;-0.974;2023-02-23T12:40:36;0.93;;;0.93;;
67378;SDS011;54262;44.642;-0.974;2023-02-23T12:45:22;1.08;;;0.80;;
67378;SDS011;54262;44.642;-0.974;2023-02-23T12:48:14;0.90;;;0.82;;
67378;SDS011;54262;44.642;-0.974;2023-02-23T12:50:54;0.93;;;0.50;;
67378;SDS011;54262;44.642;-0.974;2023-02-23T12:53:24;1.50;;;0.73;;
67378;SDS011;54262;44.642;-0.974;2023-02-23T13:01:59;2.10;;;0.93;;
67378;SDS011;54262;44.642;-0.974;2023-02-23T13:04:42;0.93;;;0.90;;
67378;SDS011;54262;44.642;-0.974;2023-02-23T13:10:19;3.15;;;1.33;;
67378;SDS011;54262;44.642;-0.974;2023-02-23T13:19:12;2.13;;;2.03;;
67378;SDS011;54262;44.642;-0.974;2023-02-23T13:24:37;1.80;;;1.70;;
67378;SDS011;54262;44.642;-0.974;2023-02-23T13:29:49;0.77;;;0.77;;
67378;SDS011;54262;44.642;-0.974;2023-02-23T13:32:23;1.30;;;1.25;;
67378;SDS011;54262;44.642;-0.974;2023-02-23T13:34:55;1.30;;;1.10;;
67378;SDS011;54262;44.642;-0.974;2023-02-23T13:40:19;0.93;;;0.80;;
67378;SDS011;54262;44.642;-0.974;2023-02-23T13:43:00;1.08;;;0.98;;
67378;SDS011;54262;44.642;-0.974;2023-02-23T13:48:34;1.70;;;0.90;;
67378;SDS011;54262;44.642;-0.974;2023-02-23T13:51:36;0.90;;;0.40;;
67378;SDS011;54262;44.642;-0.974;2023-02-23T13:56:41;2.63;;;0.70;;
67378;SDS011;54262;44.642;-0.974;2023-02-23T13:59:21;0.95;;;0.77;;
67378;SDS011;54262;44.642;-0.974;2023-02-23T14:02:04;1.83;;;1.70;;
67378;SDS011;54262;44.642;-0.974;2023-02-23T14:04:55;1.10;;;0.98;;
67378;SDS011;54262;44.642;-0.974;2023-02-23T14:07:31;1.25;;;1.13;;
67378;SDS011;54262;44.642;-0.974;2023-02-23T14:10:04;1.77;;;1.67;;
67378;SDS011;54262;44.642;-0.974;2023-02-23T14:12:33;2.35;;;1.10;;
67378;SDS011;54262;44.642;-0.974;2023-02-23T14:25:48;1.40;;;1.33;;
67378;SDS011;54262;44.642;-0.974;2023-02-23T14:30:59;1.75;;;1.65;;
67378;SDS011;54262;44.642;-0.974;2023-02-23T14:33:37;0.77;;;0.65;;
67378;SDS011;54262;44.642;-0.974;2023-02-23T14:38:58;2.15;;;1.02;;
67378;SDS011;54262;44.642;-0.974;2023-02-23T14:43:58;2.47;;;0.75;;
67378;SDS011;54262;44.642;-0.974;2023-02-23T14:46:31;2.22;;;0.70;;
67378;SDS011;54262;44.642;-0.974;2023-02-23T14:49:08;0.65;;;0.65;;
67378;SDS011;54262;44.642;-0.974;2023-02-23T14:51:44;0.82;;;0.50;;
67378;SDS011;54262;44.642;-0.974;2023-02-23T14:54:22;0.73;;;0.50;;
67378;SDS011;54262;44.642;-0.974;2023-02-23T14:56:56;1.58;;;0.98;;
67378;SDS011;54262;44.642;-0.974;2023-02-23T14:59:28;0.88;;;0.70;;
67378;SDS011;54262;44.642;-0.974;2023-02-23T15:02:01;1.13;;;0.80;;
67378;SDS011;54262;44.642;-0.974;2023-02-23T15:04:45;5.47;;;1.70;;
67378;SDS011;54262;44.642;-0.974;2023-02-23T15:07:14;2.22;;;2.00;;
67378;SDS011;54262;44.642;-0.974;2023-02-23T15:09:52;3.47;;;3.20;;
67378;SDS011;54262;44.642;-0.974;2023-02-23T15:12:33;10.15;;;2.70;;
67378;SDS011;54262;44.642;-0.974;2023-02-23T15:15:04;1.25;;;0.80;;
67378;SDS011;54262;44.642;-0.974;2023-02-23T15:17:37;1.92;;;1.15;;
67378;SDS011;54262;44.642;-0.974;2023-02-23T15:20:07;0.70;;;0.57;;
67378;SDS011;54262;44.642;-0.974;2023-02-23T15:22:38;2.85;;;0.77;;
67378;SDS011;54262;44.642;-0.974;2023-02-23T15:25:15;0.82;;;0.43;;
67378;SDS011;54262;44.642;-0.974;2023-02-23T15:27:44;3.33;;;1.90;;
67378;SDS011;54262;44.642;-0.974;2023-02-23T15:30:22;3.90;;;1.30;;
67378;SDS011;54262;44.642;-0.974;2023-02-23T15:35:56;2.03;;;1.77;;
67378;SDS011;54262;44.642;-0.974;2023-02-23T15:38:33;6.13;;;1.40;;
67378;SDS011;54262;44.642;-0.974;2023-02-23T15:41:03;2.22;;;1.65;;
67378;SDS011;54262;44.642;-0.974;2023-02-23T15:43:32;8.48;;;2.40;;
67378;SDS011;54262;44.642;-0.974;2023-02-23T15:45:59;3.83;;;1.30;;
67378;SDS011;54262;44.642;-0.974;2023-02-23T15:48:42;2.75;;;1.23;;
67378;SDS011;54262;44.642;-0.974;2023-02-23T15:51:16;4.20;;;1.15;;
67378;SDS011;54262;44.642;-0.974;2023-02-23T15:53:48;5.60;;;1.52;;
67378;SDS011;54262;44.642;-0.974;2023-02-23T15:56:15;4.60;;;1.63;;
67378;SDS011;54262;44.642;-0.974;2023-02-23T15:58:49;5.53;;;1.92;;
67378;SDS011;54262;44.642;-0.974;2023-02-23T16:01:21;5.38;;;2.10;;
67378;SDS011;54262;44.642;-0.974;2023-02-23T16:06:34;2.78;;;1.30;;
67378;SDS011;54262;44.642;-0.974;2023-02-23T16:12:10;1.58;;;1.00;;
67378;SDS011;54262;44.642;-0.974;2023-02-23T16:14:48;21.10;;;16.50;;
67378;SDS011;54262;44.642;-0.974;2023-02-23T16:20:22;3.08;;;2.03;;
67378;SDS011;54262;44.642;-0.974;2023-02-23T16:23:02;14.57;;;13.40;;
67378;SDS011;54262;44.642;-0.974;2023-02-23T16:25:30;9.25;;;7.00;;
67378;SDS011;54262;44.642;-0.974;2023-02-23T16:28:02;9.45;;;6.40;;
67378;SDS011;54262;44.642;-0.974;2023-02-23T16:30:39;7.25;;;3.08;;
67378;SDS011;54262;44.642;-0.974;2023-02-23T16:35:43;2.13;;;1.92;;
67378;SDS011;54262;44.642;-0.974;2023-02-23T16:38:34;5.22;;;3.42;;
67378;SDS011;54262;44.642;-0.974;2023-02-23T16:41:03;6.13;;;5.07;;
67378;SDS011;54262;44.642;-0.974;2023-02-23T16:43:29;4.28;;;3.50;;
67378;SDS011;54262;44.642;-0.974;2023-02-23T16:45:58;7.03;;;5.43;;
67378;SDS011;54262;44.642;-0.974;2023-02-23T16:48:25;3.42;;;3.22;;
67378;SDS011;54262;44.642;-0.974;2023-02-23T16:50:50;43.88;;;25.30;;
67378;SDS011;54262;44.642;-0.974;2023-02-23T16:53:16;25.42;;;22.92;;
67378;SDS011;54262;44.642;-0.974;2023-02-23T16:55:45;9.48;;;8.57;;
67378;SDS011;54262;44.642;-0.974;2023-02-23T16:58:17;12.47;;;11.43;;
67378;SDS011;54262;44.642;-0.974;2023-02-23T17:00:44;6.05;;;3.47;;
67378;SDS011;54262;44.642;-0.974;2023-02-23T17:03:14;14.35;;;11.82;;
67378;SDS011;54262;44.642;-0.974;2023-02-23T17:05:49;17.38;;;12.50;;
67378;SDS011;54262;44.642;-0.974;2023-02-23T17:08:15;22.52;;;13.38;;
67378;SDS011;54262;44.642;-0.974;2023-02-23T17:10:41;1.83;;;1.73;;
67378;SDS011;54262;44.642;-0.974;2023-02-23T17:13:14;4.32;;;3.42;;
67378;SDS011;54262;44.642;-0.974;2023-02-23T17:15:42;2.75;;;2.55;;
67378;SDS011;54262;44.642;-0.974;2023-02-23T17:18:16;18.60;;;12.53;;
67378;SDS011;54262;44.642;-0.974;2023-02-23T17:20:43;22.55;;;14.82;;
67378;SDS011;54262;44.642;-0.974;2023-02-23T17:23:08;12.50;;;11.35;;
67378;SDS011;54262;44.642;-0.974;2023-02-23T17:25:34;21.23;;;17.38;;
67378;SDS011;54262;44.642;-0.974;2023-02-23T17:28:02;4.10;;;3.80;;